Time;durP1;ratioP1;P1;durP2;ratioP2;P2;SDS_P1;SDS_P2;PMS_P1;PMS_P2;Temp;Humidity;BMP_temperature;BMP_pressure;BME280_temperature;BME280_humidity;BME280_pressure;Samples;Min_cycle;Max_cycle;Signal;HPM_P1;HPM_P2
2022/09/12 00:05:32;;;;;;;1999.90;999.90;;;14.50;99.90;;;;;;6759868;88;20674;-79
2022/09/12 00:15:43;;;;;;;1999.90;999.90;;;14.50;99.90;;;;;;6761154;88;20535;-80
2022/09/12 00:25:46;;;;;;;1999.90;999.90;;;14.40;99.90;;;;;;6759727;88;20204;-79
2022/09/12 00:35:51;;;;;;;1999.90;999.90;;;14.10;99.90;;;;;;6759496;88;20795;-80
2022/09/12 00:45:53;;;;;;;1999.90;999.90;;;14.00;99.90;;;;;;6752568;88;20338;-78
2022/09/12 00:55:55;;;;;;;1999.90;999.90;;;13.90;99.90;;;;;;6756290;88;20202;-79
2022/09/12 01:06:14;;;;;;;1999.90;999.90;;;13.90;99.90;;;;;;6765060;88;20657;-79
2022/09/12 01:16:15;;;;;;;1999.90;999.90;;;13.80;99.90;;;;;;6747070;88;20184;-79
2022/09/12 01:26:43;;;;;;;1999.90;999.90;;;13.70;99.90;;;;;;6760558;88;20614;-79
2022/09/12 01:36:54;;;;;;;1999.90;999.90;;;13.50;99.90;;;;;;6749297;88;20270;-77
2022/09/12 01:47:28;;;;;;;1999.90;999.90;;;13.50;99.90;;;;;;6764275;88;20188;-79
2022/09/12 01:57:38;;;;;;;1999.90;999.90;;;13.50;99.90;;;;;;6765516;87;20184;-79
2022/09/12 02:07:52;;;;;;;1999.90;999.90;;;13.50;99.90;;;;;;6760065;87;20317;-79
2022/09/12 02:17:56;;;;;;;1999.90;999.90;;;13.50;99.90;;;;;;6765276;87;20210;-79
2022/09/12 02:28:09;;;;;;;1999.90;999.90;;;13.40;99.90;;;;;;6751426;88;20345;-80
2022/09/12 02:38:27;;;;;;;1999.90;999.90;;;13.30;99.90;;;;;;6763079;87;20267;-80
2022/09/12 02:48:33;;;;;;;1999.90;999.90;;;13.50;99.90;;;;;;6752669;88;20339;-79
2022/09/12 02:58:33;;;;;;;1999.90;999.90;;;13.50;99.90;;;;;;6758633;88;20281;-78
2022/09/12 03:09:03;;;;;;;1999.90;999.90;;;13.40;99.90;;;;;;6713793;77;20244;-76
2022/09/12 03:19:18;;;;;;;1999.90;999.90;;;13.40;99.90;;;;;;6683315;88;20171;-76
2022/09/12 03:29:20;;;;;;;1999.90;999.90;;;13.40;99.90;;;;;;6661624;88;20200;-76
2022/09/12 03:39:23;;;;;;;1999.90;999.90;;;13.20;99.90;;;;;;6664249;88;20222;-76
2022/09/12 03:49:23;;;;;;;1999.90;999.90;;;13.20;99.90;;;;;;6660595;88;20211;-76
2022/09/12 03:59:24;;;;;;;1999.90;999.90;;;13.20;99.90;;;;;;6659906;88;20733;-75
2022/09/12 04:09:25;;;;;;;1999.90;999.90;;;13.00;99.90;;;;;;6677734;88;20195;-74
2022/09/12 04:19:26;;;;;;;1999.90;999.90;;;12.90;99.90;;;;;;6661425;88;20200;-75
2022/09/12 04:29:28;;;;;;;1999.90;999.90;;;12.80;99.90;;;;;;6677760;88;20209;-75
2022/09/12 04:39:29;;;;;;;1999.90;999.90;;;12.70;99.90;;;;;;6689311;88;20192;-76
2022/09/12 04:49:29;;;;;;;1999.90;999.90;;;12.70;99.90;;;;;;6674672;88;20972;-74
2022/09/12 04:59:30;;;;;;;1999.90;999.90;;;12.70;99.90;;;;;;6676705;88;20406;-76
2022/09/12 05:09:30;;;;;;;1999.90;999.90;;;12.60;99.90;;;;;;6684677;88;20235;-77
2022/09/12 05:19:31;;;;;;;1999.90;999.90;;;12.70;99.90;;;;;;6671135;88;20639;-77
2022/09/12 05:29:32;;;;;;;1999.90;999.90;;;12.90;99.90;;;;;;6686627;88;20244;-76
2022/09/12 05:39:33;;;;;;;1999.90;999.90;;;13.00;99.90;;;;;;6680845;88;20191;-74
2022/09/12 05:49:34;;;;;;;1999.90;999.90;;;13.20;99.90;;;;;;6660785;88;20205;-76
2022/09/12 05:59:35;;;;;;;1999.90;999.90;;;13.30;99.90;;;;;;6657102;88;20206;-76
2022/09/12 06:09:36;;;;;;;1999.90;999.90;;;13.60;99.90;;;;;;6653342;89;20602;-76
2022/09/12 06:19:36;;;;;;;1999.90;999.90;;;13.90;99.90;;;;;;6669046;88;21069;-75
2022/09/12 06:29:37;;;;;;;1999.90;999.90;;;14.10;99.90;;;;;;6696179;88;20209;-77
2022/09/12 06:39:37;;;;;;;1999.90;999.90;;;14.30;99.90;;;;;;6677095;88;20225;-76
2022/09/12 06:49:38;;;;;;;1999.90;999.90;;;14.60;99.90;;;;;;6671137;88;20310;-76
2022/09/12 06:59:38;;;;;;;1999.90;999.90;;;14.60;99.90;;;;;;6681752;88;20192;-75
2022/09/12 07:09:39;;;;;;;1999.90;999.90;;;15.00;99.90;;;;;;6687338;88;20190;-75
2022/09/12 07:19:40;;;;;;;1999.90;999.90;;;15.30;99.90;;;;;;6663127;88;20256;-76
2022/09/12 07:29:40;;;;;;;1999.90;999.90;;;15.80;99.90;;;;;;6679012;88;20216;-78
2022/09/12 07:39:41;;;;;;;1999.90;999.90;;;16.60;99.90;;;;;;6661900;88;20227;-77
2022/09/12 07:49:41;;;;;;;1999.90;999.90;;;17.20;99.90;;;;;;6672866;89;20233;-77
2022/09/12 07:59:42;;;;;;;1999.90;999.90;;;17.50;99.90;;;;;;6665964;89;20716;-75
2022/09/12 08:09:42;;;;;;;1999.90;999.90;;;17.60;99.90;;;;;;6677706;88;20598;-76
2022/09/12 08:19:43;;;;;;;1999.90;999.90;;;18.10;99.90;;;;;;6708254;88;20200;-76
2022/09/12 08:29:44;;;;;;;1999.90;999.90;;;18.20;99.90;;;;;;6663949;88;20226;-76
2022/09/12 08:39:44;;;;;;;1999.90;999.90;;;18.50;99.90;;;;;;6681982;88;20355;-76
2022/09/12 08:50:08;;;;;;;1999.90;999.90;;;19.00;99.90;;;;;;6671404;89;20269;-77
2022/09/12 09:00:12;;;;;;;1999.90;999.90;;;19.70;99.90;;;;;;6660092;88;20207;-78
2022/09/12 09:10:26;;;;;;;1999.90;999.90;;;20.10;99.90;;;;;;6676833;88;20190;-78
2022/09/12 09:20:45;;;;;;;1999.90;999.90;;;21.10;99.90;;;;;;6689277;88;20179;-77
2022/09/12 09:30:46;;;;;;;1999.90;999.90;;;21.10;99.90;;;;;;6665566;88;20206;-77
2022/09/12 09:41:02;;;;;;;1999.90;999.90;;;21.70;99.90;;;;;;6665390;88;20704;-77
2022/09/12 09:51:05;;;;;;;1999.90;999.90;;;22.20;99.90;;;;;;6671098;88;20192;-78
2022/09/12 10:01:14;;;;;;;;;;;22.10;99.90;;;;;;6678974;88;20314;-78
2022/09/12 10:11:15;;;;;;;1999.90;999.90;;;22.70;99.90;;;;;;6670359;88;20075;-78
2022/09/12 10:21:34;;;;;;;1999.90;999.90;;;23.00;99.90;;;;;;6665645;88;20564;-78
2022/09/12 10:31:44;;;;;;;1999.90;999.90;;;23.50;99.90;;;;;;6666298;88;20699;-77
2022/09/12 10:41:46;;;;;;;1999.90;999.90;;;24.10;99.90;;;;;;6661073;88;20256;-77
2022/09/12 10:51:47;;;;;;;1999.90;999.90;;;24.50;99.90;;;;;;6690116;88;20196;-76
2022/09/12 11:02:00;;;;;;;1999.90;999.90;;;24.20;99.90;;;;;;6715355;88;20239;-77
2022/09/12 11:12:10;;;;;;;1999.90;999.90;;;24.70;99.90;;;;;;6682876;88;20787;-77
2022/09/12 11:22:34;;;;;;;1999.90;999.90;;;24.90;99.90;;;;;;6674609;88;20902;-78
2022/09/12 11:33:04;;;;;;;1999.90;999.90;;;26.40;99.80;;;;;;6680460;88;20199;-78
2022/09/12 11:43:37;;;;;;;1999.90;999.90;;;25.80;99.10;;;;;;6676181;88;20265;-78
2022/09/12 11:53:41;;;;;;;1999.90;999.90;;;25.40;98.70;;;;;;6688890;88;20215;-79
2022/09/12 12:03:44;;;;;;;1999.90;999.90;;;26.20;97.50;;;;;;6674522;88;20298;-79
2022/09/12 12:13:57;;;;;;;1999.90;999.90;;;26.60;96.00;;;;;;6679458;88;20201;-79
2022/09/12 12:24:02;;;;;;;1999.90;999.90;;;26.70;97.00;;;;;;6694374;88;20228;-78
2022/09/12 12:34:18;;;;;;;1999.90;999.90;;;26.50;95.70;;;;;;6701269;88;20217;-79
2022/09/12 12:44:43;;;;;;;1999.90;999.90;;;27.70;94.90;;;;;;6667938;88;20691;-79
2022/09/12 12:54:44;;;;;;;1999.90;999.90;;;27.50;94.80;;;;;;6670914;88;20215;-78
2022/09/12 13:04:45;;;;;;;1999.90;999.90;;;27.30;95.60;;;;;;6683182;88;20351;-78
2022/09/12 13:14:45;;;;;;;1999.90;999.90;;;27.70;95.30;;;;;;6671550;88;20212;-79
2022/09/12 13:24:48;;;;;;;1999.90;999.90;;;27.60;95.60;;;;;;6673140;88;20654;-79
2022/09/12 13:35:00;;;;;;;1999.90;999.90;;;27.10;96.10;;;;;;6681485;88;20563;-79
2022/09/12 13:45:10;;;;;;;1999.90;999.90;;;27.50;95.40;;;;;;6689935;88;20529;-79
2022/09/12 13:55:26;;;;;;;1999.90;999.90;;;27.40;95.30;;;;;;6672403;88;20268;-78
2022/09/12 14:05:26;;;;;;;1999.90;999.90;;;27.30;95.60;;;;;;6682068;88;20658;-78
2022/09/12 14:15:32;;;;;;;1999.90;999.90;;;27.40;95.00;;;;;;6664937;88;20216;-80
2022/09/12 14:25:40;;;;;;;1999.90;999.90;;;27.50;94.50;;;;;;6686804;88;20231;-79
2022/09/12 14:35:43;;;;;;;1999.90;999.90;;;27.30;94.80;;;;;;6674133;88;20406;-77
2022/09/12 14:45:52;;;;;;;1999.90;999.90;;;27.30;93.90;;;;;;6688422;88;20181;-79
2022/09/12 14:56:12;;;;;;;1999.90;999.90;;;27.60;93.80;;;;;;6679644;88;20574;-78
2022/09/12 15:16:16;;;;;;;1999.90;999.90;;;27.00;93.60;;;;;;6756949;87;20240;-81
2022/09/12 15:26:20;;;;;;;1999.90;999.90;;;26.90;93.20;;;;;;6748994;88;20236;-81
2022/09/12 15:36:22;;;;;;;1999.90;999.90;;;26.80;92.70;;;;;;6767154;88;20234;-82
2022/09/12 15:46:22;;;;;;;1999.90;999.90;;;27.40;92.70;;;;;;6775632;87;20205;-82
2022/09/12 15:56:23;;;;;;;1999.90;999.90;;;26.60;91.80;;;;;;6776179;87;20988;-82
2022/09/12 16:06:24;;;;;;;1999.90;999.90;;;26.40;91.70;;;;;;6776061;87;20193;-82
2022/09/12 16:16:24;;;;;;;1999.90;999.90;;;26.10;92.20;;;;;;6782661;87;20183;-81
2022/09/12 16:26:25;;;;;;;1999.90;999.90;;;26.10;91.60;;;;;;6781125;87;20298;-82
2022/09/12 16:36:25;;;;;;;1999.90;999.90;;;25.60;91.60;;;;;;6779148;87;21126;-82
2022/09/12 16:46:30;;;;;;;1999.90;999.90;;;25.60;92.30;;;;;;6739840;88;20184;-79
2022/09/12 16:56:30;;;;;;;1999.90;999.90;;;25.30;92.20;;;;;;6738339;88;20295;-79
2022/09/12 17:06:32;;;;;;;1999.90;999.90;;;25.20;92.30;;;;;;6748873;87;20323;-82
2022/09/12 17:16:44;;;;;;;1999.90;999.90;;;25.00;92.80;;;;;;6752442;87;20177;-81
2022/09/12 17:26:46;;;;;;;1999.90;999.90;;;24.80;93.50;;;;;;6740239;87;20241;-81
2022/09/12 17:36:47;;;;;;;1999.90;999.90;;;24.50;93.80;;;;;;6748102;87;20343;-82
2022/09/12 17:56:51;;;;;;;1999.90;999.90;;;23.80;95.30;;;;;;6706749;87;20256;-80
2022/09/12 18:06:52;;;;;;;1999.90;999.90;;;23.40;96.10;;;;;;6663512;88;21390;-79
2022/09/12 18:16:52;;;;;;;1999.90;999.90;;;23.10;96.30;;;;;;6672643;89;20247;-80
2022/09/12 18:26:55;;;;;;;1999.90;999.90;;;22.80;96.60;;;;;;6667896;89;20867;-79
2022/09/12 18:36:56;;;;;;;1999.90;999.90;;;22.50;97.10;;;;;;6679230;89;20188;-79
2022/09/12 18:46:56;;;;;;;1999.90;999.90;;;22.40;97.30;;;;;;6675707;89;20219;-81
2022/09/12 18:56:57;;;;;;;1999.90;999.90;;;22.10;98.00;;;;;;6672372;89;20688;-80
2022/09/12 19:06:57;;;;;;;1999.90;999.90;;;22.00;98.50;;;;;;6672928;88;20209;-81
2022/09/12 19:16:58;;;;;;;1999.90;999.90;;;21.80;99.10;;;;;;6669691;89;20197;-80
2022/09/12 19:26:58;;;;;;;1999.90;999.90;;;21.50;99.90;;;;;;6671192;89;20913;-81
2022/09/12 19:36:59;;;;;;;1999.90;999.90;;;21.20;99.90;;;;;;6660399;89;20208;-80
2022/09/12 19:46:59;;;;;;;1999.90;999.90;;;21.00;99.90;;;;;;6666111;88;20718;-80
2022/09/12 19:57:00;;;;;;;1999.90;999.90;;;21.00;99.90;;;;;;6667417;88;20216;-80
2022/09/12 20:07:00;;;;;;;1999.90;999.90;;;20.80;99.90;;;;;;6665212;88;20188;-80
2022/09/12 20:17:01;;;;;;;1999.90;999.90;;;20.60;99.90;;;;;;6659494;88;20200;-79
2022/09/12 20:27:01;;;;;;;1999.90;999.90;;;20.40;99.90;;;;;;6658388;88;20230;-79
2022/09/12 20:37:02;;;;;;;1999.90;999.90;;;20.40;99.90;;;;;;6663959;89;20264;-80
2022/09/12 20:47:02;;;;;;;1999.90;999.90;;;20.40;99.90;;;;;;6665165;88;20172;-80
2022/09/12 20:57:03;;;;;;;1999.90;999.90;;;20.40;99.90;;;;;;6663136;88;20221;-79
2022/09/12 21:07:04;;;;;;;1999.90;999.90;;;20.20;99.90;;;;;;6669721;78;20624;-76
2022/09/12 21:17:04;;;;;;;1999.90;999.90;;;20.10;99.90;;;;;;6659880;88;20714;-75
2022/09/12 21:27:05;;;;;;;1999.90;999.90;;;19.90;99.90;;;;;;6653002;88;20743;-74
2022/09/12 21:37:06;;;;;;;1999.90;999.90;;;19.60;99.90;;;;;;6658815;88;20228;-75
2022/09/12 21:47:07;;;;;;;1999.90;999.90;;;19.50;99.90;;;;;;6652951;88;20218;-77
2022/09/12 21:57:07;;;;;;;1999.90;999.90;;;19.40;99.90;;;;;;6659702;88;20726;-76
2022/09/12 22:07:08;;;;;;;1999.90;999.90;;;19.40;99.90;;;;;;6663526;88;20835;-76
2022/09/12 22:17:11;;;;;;;1999.90;999.90;;;19.20;99.90;;;;;;6672968;88;20238;-76
2022/09/12 22:27:12;;;;;;;1999.90;999.90;;;19.10;99.90;;;;;;6673500;87;20794;-76
2022/09/12 22:37:12;;;;;;;1999.90;999.90;;;18.90;99.90;;;;;;6680565;87;20195;-76
2022/09/12 22:47:13;;;;;;;1999.90;999.90;;;18.90;99.90;;;;;;6674424;87;20286;-75
2022/09/12 22:57:13;;;;;;;1999.90;999.90;;;18.90;99.90;;;;;;6671356;87;20250;-75
2022/09/12 23:07:14;;;;;;;1999.90;999.90;;;18.90;99.90;;;;;;6660381;87;20229;-74
2022/09/12 23:17:14;;;;;;;1999.90;999.90;;;18.80;99.90;;;;;;6662383;88;20261;-75
2022/09/12 23:27:15;;;;;;;1999.90;999.90;;;18.70;99.90;;;;;;6656328;88;20244;-75
2022/09/12 23:37:15;;;;;;;1999.90;999.90;;;18.60;99.90;;;;;;6659341;88;20956;-76
2022/09/12 23:47:17;;;;;;;1999.90;999.90;;;18.30;99.90;;;;;;6655787;88;21095;-76
2022/09/12 23:57:17;;;;;;;1999.90;999.90;;;18.10;99.90;;;;;;6656045;88;21074;-76
